createdAt,value
2023-05-14T00:00:38.958Z,63.30
2023-05-14T00:03:07.481Z,63.30
2023-05-14T00:05:36.045Z,63.30
2023-05-14T00:08:04.390Z,63.30
2023-05-14T00:10:32.552Z,63.30
2023-05-14T00:13:02.500Z,63.30
2023-05-14T00:15:32.956Z,63.30
2023-05-14T00:18:02.449Z,63.30
2023-05-14T00:20:30.719Z,63.20
2023-05-14T00:22:58.972Z,63.20
2023-05-14T00:25:27.274Z,63.20
2023-05-14T00:27:55.367Z,63.20
2023-05-14T00:30:25.233Z,63.20
2023-05-14T00:32:55.014Z,63.20
2023-05-14T00:35:23.422Z,63.10
2023-05-14T00:37:51.591Z,63.10
2023-05-14T00:40:20.920Z,63.10
2023-05-14T00:42:49.245Z,63.10
2023-05-14T00:45:17.383Z,63.10
2023-05-14T00:47:47.479Z,63.10
2023-05-14T00:50:17.213Z,63.10
2023-05-14T00:52:45.825Z,63.10
2023-05-14T00:55:16.468Z,63.10
2023-05-14T00:57:45.788Z,63.10
2023-05-14T01:00:14.876Z,63.10
2023-05-14T01:02:43.076Z,63.10
2023-05-14T01:05:12.779Z,63.10
2023-05-14T01:07:50.451Z,63.10
2023-05-14T01:10:25.329Z,63.10
2023-05-14T01:13:05.605Z,63.20
2023-05-14T01:15:35.820Z,63.30
2023-05-14T01:18:07.525Z,63.30
2023-05-14T01:20:37.231Z,63.30
2023-05-14T01:23:06.911Z,63.30
2023-05-14T01:25:35.465Z,63.30
2023-05-14T01:28:11.584Z,63.30
2023-05-14T01:30:46.704Z,63.30
2023-05-14T01:33:16.825Z,63.30
2023-05-14T01:35:46.415Z,63.30
2023-05-14T01:38:20.040Z,63.30
2023-05-14T01:40:50.087Z,63.30
2023-05-14T01:43:18.876Z,63.20
2023-05-14T01:45:47.282Z,63.20
2023-05-14T01:48:16.714Z,63.20
2023-05-14T01:50:45.028Z,63.20
2023-05-14T01:53:13.194Z,63.20
2023-05-14T01:55:42.770Z,63.20
2023-05-14T01:58:11.071Z,63.20
2023-05-14T02:00:39.356Z,63.20
2023-05-14T02:03:07.519Z,63.20
2023-05-14T02:05:35.720Z,63.10
2023-05-14T02:08:03.841Z,63.10
2023-05-14T02:10:32.019Z,63.10
2023-05-14T02:13:01.557Z,63.10
2023-05-14T02:15:29.706Z,63.10
2023-05-14T02:17:57.921Z,63.10
2023-05-14T02:20:26.224Z,63.10
2023-05-14T02:22:54.417Z,63.10
2023-05-14T02:25:22.572Z,63.10
2023-05-14T02:27:50.714Z,63.10
2023-05-14T02:30:20.388Z,63.10
2023-05-14T02:32:48.605Z,63.10
2023-05-14T02:35:17.064Z,63.10
2023-05-14T02:37:45.317Z,63.10
2023-05-14T02:40:13.689Z,63.10
2023-05-14T02:42:41.861Z,63.10
2023-05-14T02:45:10.549Z,63.10
2023-05-14T02:47:40.060Z,63.10
2023-05-14T02:50:09.350Z,63.10
2023-05-14T02:52:37.531Z,63.10
2023-05-14T02:55:06.771Z,63.10
2023-05-14T02:57:35.020Z,63.10
2023-05-14T03:00:03.282Z,63.10
2023-05-14T03:02:31.916Z,63.10
2023-05-14T03:05:02.132Z,63.10
2023-05-14T03:07:30.329Z,63.10
2023-05-14T03:10:00.353Z,63.10
2023-05-14T03:12:28.520Z,63.10
2023-05-14T03:14:56.631Z,63.10
2023-05-14T03:17:25.026Z,63.10
2023-05-14T03:19:53.131Z,63.10
2023-05-14T03:22:22.629Z,63.10
2023-05-14T03:24:50.778Z,63.10
2023-05-14T03:27:18.937Z,63.10
2023-05-14T03:29:47.075Z,63.10
2023-05-14T03:32:15.573Z,63.10
2023-05-14T03:34:44.706Z,63.10
2023-05-14T03:37:13.665Z,63.10
2023-05-14T03:39:43.205Z,63.10
2023-05-14T03:42:11.330Z,63.10
2023-05-14T03:44:39.504Z,63.10
2023-05-14T03:47:07.805Z,63.10
2023-05-14T03:49:36.165Z,63.10
2023-05-14T03:52:04.478Z,63.10
2023-05-14T03:54:32.704Z,63.10
2023-05-14T03:57:02.823Z,63.10
2023-05-14T03:59:31.249Z,63.20
2023-05-14T04:01:59.361Z,63.20
2023-05-14T04:04:27.712Z,63.20
2023-05-14T04:06:56.360Z,63.00
2023-05-14T04:09:24.527Z,63.00
2023-05-14T04:11:52.715Z,62.90
2023-05-14T04:14:22.695Z,62.80
2023-05-14T04:16:50.864Z,62.70
2023-05-14T04:19:19.288Z,62.60
2023-05-14T04:21:47.524Z,62.50
2023-05-14T04:24:15.654Z,62.50
2023-05-14T04:26:43.809Z,62.40
2023-05-14T04:29:11.947Z,62.40
2023-05-14T04:31:42.105Z,62.40
2023-05-14T04:34:10.340Z,62.40
2023-05-14T04:36:38.500Z,62.40
2023-05-14T04:39:06.679Z,62.30
2023-05-14T04:41:34.786Z,62.30
2023-05-14T04:44:05.092Z,62.30
2023-05-14T04:46:33.288Z,62.30
2023-05-14T04:49:02.860Z,62.40
2023-05-14T04:51:31.674Z,62.40
2023-05-14T04:53:59.861Z,62.40
2023-05-14T04:56:28.061Z,62.40
2023-05-14T04:58:56.197Z,62.40
2023-05-14T05:01:24.494Z,62.40
2023-05-14T05:03:52.797Z,62.50
2023-05-14T05:06:22.405Z,62.50
2023-05-14T05:08:50.571Z,62.50
2023-05-14T05:11:18.722Z,62.50
2023-05-14T05:13:46.834Z,62.50
2023-05-14T05:16:15.683Z,62.50
2023-05-14T05:18:44.647Z,62.50
2023-05-14T05:21:12.888Z,62.50
2023-05-14T05:23:42.427Z,62.50
2023-05-14T05:26:10.600Z,62.50
2023-05-14T05:28:38.706Z,62.50
2023-05-14T05:31:07.070Z,62.50
2023-05-14T05:33:35.677Z,62.50
2023-05-14T05:36:04.022Z,62.50
2023-05-14T05:38:32.219Z,62.50
2023-05-14T05:41:01.763Z,62.50
2023-05-14T05:43:29.901Z,62.50
2023-05-14T05:45:58.015Z,62.50
2023-05-14T05:48:26.212Z,62.50
2023-05-14T05:50:54.438Z,62.50
2023-05-14T05:53:22.608Z,62.50
2023-05-14T05:55:51.722Z,62.50
2023-05-14T05:58:21.328Z,62.50
2023-05-14T06:00:49.485Z,62.50
2023-05-14T06:03:17.758Z,62.50
2023-05-14T06:05:46.838Z,62.40
2023-05-14T06:08:15.165Z,62.40
2023-05-14T06:10:43.292Z,62.40
2023-05-14T06:13:11.520Z,62.30
2023-05-14T06:15:41.128Z,62.30
2023-05-14T06:18:09.411Z,62.20
2023-05-14T06:20:37.605Z,62.20
2023-05-14T06:23:05.962Z,62.20
2023-05-14T06:25:34.043Z,62.20
2023-05-14T06:28:02.264Z,62.20
2023-05-14T06:30:30.517Z,62.20
2023-05-14T06:33:00.098Z,62.20
2023-05-14T06:35:28.335Z,62.10
2023-05-14T06:37:56.524Z,62.20
2023-05-14T06:40:24.971Z,62.10
2023-05-14T06:42:53.320Z,62.20
2023-05-14T06:45:21.513Z,62.10
2023-05-14T06:47:49.705Z,62.20
2023-05-14T06:50:19.476Z,62.10
2023-05-14T06:52:47.631Z,62.10
2023-05-14T06:55:15.801Z,62.10
2023-05-14T06:57:44.702Z,62.10
2023-05-14T07:00:14.376Z,62.10
2023-05-14T07:02:42.526Z,62.10
2023-05-14T07:05:11.222Z,62.10
2023-05-14T07:07:41.292Z,62.10
2023-05-14T07:10:09.854Z,62.10
2023-05-14T07:12:37.979Z,62.10
2023-05-14T07:15:07.496Z,62.10
2023-05-14T07:17:35.678Z,62.10
2023-05-14T07:20:03.940Z,62.10
2023-05-14T07:22:32.432Z,62.00
2023-05-14T07:25:02.832Z,62.00
2023-05-14T07:27:30.952Z,62.00
2023-05-14T07:29:59.073Z,62.00
2023-05-14T07:32:27.207Z,61.90
2023-05-14T07:34:55.965Z,61.90
2023-05-14T07:37:26.080Z,61.90
2023-05-14T07:39:54.625Z,61.80
2023-05-14T07:42:35.283Z,61.80
2023-05-14T07:45:05.345Z,61.80
2023-05-14T07:47:33.848Z,61.80
2023-05-14T07:50:02.063Z,61.80
2023-05-14T07:52:30.263Z,61.80
2023-05-14T07:54:58.413Z,61.80
2023-05-14T07:57:27.999Z,61.80
2023-05-14T07:59:58.094Z,61.80
2023-05-14T08:02:26.265Z,61.90
2023-05-14T08:04:55.513Z,61.90
2023-05-14T08:07:23.773Z,61.90
2023-05-14T08:09:51.926Z,61.90
2023-05-14T08:12:20.068Z,61.90
2023-05-14T08:14:49.616Z,61.90
2023-05-14T08:17:17.987Z,61.90
2023-05-14T08:19:46.836Z,61.90
2023-05-14T08:22:15.056Z,61.80
2023-05-14T08:24:43.263Z,61.80
2023-05-14T08:27:11.395Z,61.80
2023-05-14T08:29:39.581Z,61.90
2023-05-14T08:32:22.103Z,62.00
2023-05-14T08:34:51.869Z,62.10
2023-05-14T08:37:20.299Z,62.10
2023-05-14T08:39:48.582Z,62.20
2023-05-14T08:42:21.694Z,62.20
2023-05-14T08:44:50.944Z,62.30
2023-05-14T08:47:23.099Z,62.30
2023-05-14T08:50:04.973Z,62.30
2023-05-14T08:52:33.628Z,62.40
2023-05-14T08:55:06.815Z,62.40
2023-05-14T08:57:35.948Z,62.40
2023-05-14T09:00:08.368Z,62.40
2023-05-14T09:02:38.695Z,62.30
2023-05-14T09:05:09.210Z,62.30
2023-05-14T09:07:37.628Z,62.30
2023-05-14T09:10:06.865Z,62.30
2023-05-14T09:12:35.121Z,62.20
2023-05-14T09:15:03.388Z,62.20
2023-05-14T09:17:31.664Z,62.10
2023-05-14T09:20:01.502Z,62.10
2023-05-14T09:22:32.291Z,62.10
2023-05-14T09:25:06.176Z,62.10
2023-05-14T09:27:34.941Z,62.10
2023-05-14T09:30:08.206Z,62.10
2023-05-14T09:32:40.836Z,62.10
2023-05-14T09:35:19.707Z,62.10
2023-05-14T09:37:49.553Z,62.00
2023-05-14T09:40:19.507Z,62.00
2023-05-14T09:42:49.474Z,61.90
2023-05-14T09:45:18.224Z,61.90
2023-05-14T09:47:46.466Z,61.80
2023-05-14T09:50:16.138Z,61.80
2023-05-14T09:52:44.429Z,61.80
2023-05-14T09:55:12.825Z,61.80
2023-05-14T09:57:41.238Z,61.80
2023-05-14T10:00:10.748Z,61.80
2023-05-14T10:02:41.169Z,61.80
2023-05-14T10:05:10.466Z,61.90
2023-05-14T10:07:42.706Z,61.90
2023-05-14T10:10:16.423Z,61.90
2023-05-14T10:12:49.367Z,62.00
2023-05-14T10:15:22.382Z,62.00
2023-05-14T10:17:53.629Z,62.10
2023-05-14T10:20:24.403Z,62.20
2023-05-14T10:22:55.081Z,62.20
2023-05-14T10:25:24.259Z,62.20
2023-05-14T10:27:55.824Z,62.20
2023-05-14T10:30:25.863Z,62.20
2023-05-14T10:33:09.699Z,62.20
2023-05-14T10:36:01.703Z,62.20
2023-05-14T10:38:33.578Z,62.10
2023-05-14T10:41:03.424Z,62.10
2023-05-14T10:43:37.840Z,62.10
2023-05-14T10:46:07.832Z,62.10
2023-05-14T10:48:37.744Z,62.00
2023-05-14T10:51:09.250Z,61.90
2023-05-14T10:53:41.014Z,61.90
2023-05-14T10:56:10.352Z,61.90
2023-05-14T10:58:41.665Z,61.90
2023-05-14T11:01:11.820Z,62.00
2023-05-14T11:03:43.207Z,62.10
2023-05-14T11:06:13.483Z,62.10
2023-05-14T11:08:43.849Z,62.10
2023-05-14T11:11:12.192Z,62.10
2023-05-14T11:13:40.354Z,62.10
2023-05-14T11:16:21.753Z,62.00
2023-05-14T11:18:56.672Z,62.00
2023-05-14T11:21:25.409Z,61.90
2023-05-14T11:23:56.232Z,61.90
2023-05-14T11:26:25.243Z,61.80
2023-05-14T11:28:53.561Z,61.80
2023-05-14T11:31:24.233Z,61.70
2023-05-14T11:33:54.535Z,61.70
2023-05-14T11:36:23.847Z,61.60
2023-05-14T11:38:52.797Z,61.50
2023-05-14T11:41:23.483Z,61.60
2023-05-14T11:43:51.882Z,61.50
2023-05-14T11:46:21.928Z,61.50
2023-05-14T11:48:50.988Z,61.60
2023-05-14T11:51:19.867Z,61.70
2023-05-14T11:53:48.738Z,61.70
2023-05-14T11:56:17.864Z,61.50
2023-05-14T11:58:56.900Z,61.50
2023-05-14T12:01:25.414Z,61.90
2023-05-14T12:03:53.639Z,62.20
2023-05-14T12:06:22.479Z,62.00
2023-05-14T12:08:51.258Z,62.10
2023-05-14T12:11:23.473Z,62.10
2023-05-14T12:13:54.788Z,62.70
2023-05-14T12:16:23.906Z,62.40
2023-05-14T12:18:52.250Z,62.50
2023-05-14T12:21:20.532Z,62.90
2023-05-14T12:23:49.270Z,63.50
2023-05-14T12:26:18.361Z,63.20
2023-05-14T12:28:49.357Z,62.80
2023-05-14T12:31:19.329Z,62.60
2023-05-14T12:33:47.855Z,62.60
2023-05-14T12:36:21.906Z,62.20
2023-05-14T12:38:51.525Z,62.40
2023-05-14T12:41:19.728Z,62.70
2023-05-14T12:43:49.628Z,62.70
2023-05-14T12:46:19.292Z,62.90
2023-05-14T12:48:47.670Z,63.60
2023-05-14T12:51:16.607Z,63.40
2023-05-14T12:53:45.980Z,63.20
2023-05-14T12:56:14.894Z,63.10
2023-05-14T12:58:43.255Z,63.00
2023-05-14T13:01:11.879Z,62.90
2023-05-14T13:03:41.956Z,62.90
2023-05-14T13:06:10.897Z,63.00
2023-05-14T13:08:41.013Z,63.00
2023-05-14T13:11:11.247Z,63.20
2023-05-14T13:13:39.928Z,63.30
2023-05-14T13:16:09.583Z,63.40
2023-05-14T13:18:38.255Z,63.50
2023-05-14T13:21:08.550Z,63.40
2023-05-14T13:23:37.342Z,63.50
2023-05-14T13:26:05.918Z,63.50
2023-05-14T13:28:34.858Z,63.40
2023-05-14T13:31:08.821Z,63.40
2023-05-14T13:33:38.348Z,63.40
2023-05-14T13:36:09.242Z,63.30
2023-05-14T13:38:37.650Z,63.20
2023-05-14T13:41:06.199Z,63.20
2023-05-14T13:43:36.162Z,63.10
2023-05-14T13:46:06.036Z,63.10
2023-05-14T13:48:35.939Z,63.00
2023-05-14T13:51:04.274Z,62.90
2023-05-14T13:53:33.785Z,63.00
2023-05-14T13:56:01.961Z,63.00
2023-05-14T13:58:30.493Z,63.10
2023-05-14T14:00:59.213Z,63.10
2023-05-14T14:03:28.165Z,63.10
2023-05-14T14:05:56.753Z,63.20
2023-05-14T14:08:25.599Z,63.10
2023-05-14T14:10:55.972Z,63.10
2023-05-14T14:13:24.621Z,63.00
2023-05-14T14:15:53.196Z,63.00
2023-05-14T14:18:21.452Z,63.00
2023-05-14T14:20:49.683Z,63.00
2023-05-14T14:23:17.935Z,63.00
2023-05-14T14:25:46.136Z,63.10
2023-05-14T14:28:15.670Z,63.00
2023-05-14T14:30:44.184Z,62.80
2023-05-14T14:33:12.484Z,62.60
2023-05-14T14:35:40.708Z,62.60
2023-05-14T14:38:08.849Z,62.60
2023-05-14T14:40:37.618Z,62.50
2023-05-14T14:43:06.329Z,62.40
2023-05-14T14:45:36.625Z,62.40
2023-05-14T14:48:31.559Z,62.50
2023-05-14T14:51:01.172Z,62.60
2023-05-14T14:53:30.345Z,62.60
2023-05-14T14:56:00.662Z,62.60
2023-05-14T14:58:29.861Z,62.50
2023-05-14T15:01:00.438Z,62.40
2023-05-14T15:03:29.640Z,62.30
2023-05-14T15:05:58.482Z,62.30
2023-05-14T15:08:28.906Z,62.20
2023-05-14T15:10:58.022Z,62.20
2023-05-14T15:13:27.206Z,62.20
2023-05-14T15:15:55.920Z,62.20
2023-05-14T15:18:26.685Z,62.30
2023-05-14T15:20:55.801Z,62.20
2023-05-14T15:23:24.085Z,62.30
2023-05-14T15:25:52.271Z,62.30
2023-05-14T15:28:20.548Z,62.30
2023-05-14T15:30:49.517Z,62.20
2023-05-14T15:33:19.442Z,62.20
2023-05-14T15:35:49.288Z,62.30
2023-05-14T15:38:17.456Z,62.30
2023-05-14T15:40:45.614Z,62.30
2023-05-14T15:43:13.910Z,62.40
2023-05-14T15:45:42.042Z,62.40
2023-05-14T15:48:11.228Z,62.40
2023-05-14T15:50:39.657Z,62.40
2023-05-14T15:53:09.545Z,62.50
2023-05-14T15:55:38.236Z,62.50
2023-05-14T15:58:06.938Z,62.60
2023-05-14T16:00:35.775Z,62.60
2023-05-14T16:03:04.595Z,62.60
2023-05-14T16:05:33.339Z,62.70
2023-05-14T16:08:01.534Z,62.70
2023-05-14T16:10:31.140Z,62.70
2023-05-14T16:12:59.310Z,62.70
2023-05-14T16:15:27.707Z,62.70
2023-05-14T16:17:56.597Z,62.80
2023-05-14T16:20:25.984Z,62.80
2023-05-14T16:22:55.458Z,62.80
2023-05-14T16:25:23.648Z,62.80
2023-05-14T16:27:54.128Z,62.80
2023-05-14T16:30:22.504Z,62.90
2023-05-14T16:32:50.910Z,62.90
2023-05-14T16:35:19.103Z,62.90
2023-05-14T16:37:47.237Z,62.90
2023-05-14T16:40:16.177Z,62.90
2023-05-14T16:42:45.106Z,62.90
2023-05-14T16:45:16.165Z,62.80
2023-05-14T16:47:44.338Z,62.80
2023-05-14T16:50:12.866Z,62.80
2023-05-14T16:52:41.028Z,62.70
2023-05-14T16:55:10.609Z,62.80
2023-05-14T16:57:38.794Z,62.80
2023-05-14T17:00:09.479Z,62.80
2023-05-14T17:02:39.348Z,62.70
2023-05-14T17:05:08.829Z,62.70
2023-05-14T17:07:38.407Z,62.60
2023-05-14T17:10:08.000Z,62.60
2023-05-14T17:12:36.197Z,62.60
2023-05-14T17:15:05.654Z,62.50
2023-05-14T17:17:34.144Z,62.50
2023-05-14T17:20:05.949Z,62.50
2023-05-14T17:22:34.251Z,62.50
2023-05-14T17:25:02.473Z,62.50
2023-05-14T17:27:33.216Z,62.50
2023-05-14T17:30:01.749Z,62.50
2023-05-14T17:32:31.258Z,62.50
2023-05-14T17:34:59.654Z,62.50
2023-05-14T17:37:29.432Z,62.50
2023-05-14T17:39:57.697Z,62.60
2023-05-14T17:42:26.679Z,62.60
2023-05-14T17:44:54.845Z,62.60
2023-05-14T17:47:23.691Z,62.70
2023-05-14T17:49:54.493Z,62.70
2023-05-14T17:52:22.875Z,62.80
2023-05-14T17:54:52.353Z,62.70
2023-05-14T17:57:21.392Z,62.70
2023-05-14T17:59:49.529Z,62.70
2023-05-14T18:02:17.723Z,62.80
2023-05-14T18:04:46.682Z,62.80
2023-05-14T18:07:15.161Z,62.90
2023-05-14T18:09:43.368Z,62.90
2023-05-14T18:12:12.968Z,62.90
2023-05-14T18:14:41.538Z,63.00
2023-05-14T18:17:12.424Z,63.00
2023-05-14T18:19:41.679Z,63.10
2023-05-14T18:22:09.877Z,63.10
2023-05-14T18:24:38.289Z,63.10
2023-05-14T18:27:06.946Z,63.20
2023-05-14T18:29:36.533Z,63.20
2023-05-14T18:32:05.071Z,63.20
2023-05-14T18:34:33.951Z,63.20
2023-05-14T18:37:02.365Z,63.20
2023-05-14T18:39:30.539Z,63.30
2023-05-14T18:41:58.756Z,63.30
2023-05-14T18:44:28.486Z,63.30
2023-05-14T18:46:59.497Z,63.30
2023-05-14T18:49:27.687Z,63.40
2023-05-14T18:51:57.116Z,63.30
2023-05-14T18:54:25.734Z,63.40
2023-05-14T18:56:54.704Z,63.40
2023-05-14T18:59:22.930Z,63.40
2023-05-14T19:01:51.392Z,63.40
2023-05-14T19:04:22.373Z,63.40
2023-05-14T19:06:51.514Z,63.40
2023-05-14T19:09:21.354Z,63.40
2023-05-14T19:11:50.168Z,63.40
2023-05-14T19:14:18.389Z,63.50
2023-05-14T19:16:46.574Z,63.50
2023-05-14T19:19:14.970Z,63.50
2023-05-14T19:21:45.391Z,63.50
2023-05-14T19:24:14.255Z,63.60
2023-05-14T19:26:42.441Z,63.60
2023-05-14T19:29:10.785Z,63.70
2023-05-14T19:31:39.238Z,63.70
2023-05-14T19:34:07.667Z,63.80
2023-05-14T19:36:35.977Z,63.80
2023-05-14T19:39:06.016Z,63.80
2023-05-14T19:41:34.222Z,63.80
2023-05-14T19:44:02.342Z,63.80
2023-05-14T19:46:30.667Z,63.80
2023-05-14T19:49:00.953Z,63.80
2023-05-14T19:51:29.133Z,63.80
2023-05-14T19:53:57.664Z,63.80
2023-05-14T19:56:29.388Z,63.80
2023-05-14T19:58:59.176Z,63.80
2023-05-14T20:01:28.248Z,63.90
2023-05-14T20:03:57.421Z,63.80
2023-05-14T20:06:26.423Z,63.80
2023-05-14T20:08:56.896Z,63.80
2023-05-14T20:11:27.224Z,63.80
2023-05-14T20:13:56.558Z,63.90
2023-05-14T20:16:24.831Z,63.90
2023-05-14T20:18:54.594Z,63.90
2023-05-14T20:21:22.802Z,63.90
2023-05-14T20:23:51.420Z,63.90
2023-05-14T20:26:20.130Z,63.90
2023-05-14T20:28:53.577Z,63.90
2023-05-14T20:31:22.840Z,63.90
2023-05-14T20:33:51.501Z,63.90
2023-05-14T20:36:20.048Z,63.90
2023-05-14T20:38:48.721Z,63.90
2023-05-14T20:41:17.096Z,63.90
2023-05-14T20:43:45.272Z,63.90
2023-05-14T20:46:15.004Z,63.90
2023-05-14T20:48:43.255Z,63.90
2023-05-14T20:51:11.491Z,63.90
2023-05-14T20:53:40.181Z,63.90
2023-05-14T20:56:08.519Z,63.90
2023-05-14T20:58:36.975Z,63.90
2023-05-14T21:01:07.942Z,63.90
2023-05-14T21:03:38.134Z,63.90
2023-05-14T21:06:07.350Z,63.90
2023-05-14T21:08:37.690Z,63.90
2023-05-14T21:11:06.433Z,63.90
2023-05-14T21:13:35.173Z,63.90
2023-05-14T21:16:04.182Z,63.90
2023-05-14T21:18:32.930Z,63.90
2023-05-14T21:21:02.540Z,63.90
2023-05-14T21:23:30.679Z,63.90
2023-05-14T21:25:59.003Z,63.90
2023-05-14T21:28:27.196Z,63.90
2023-05-14T21:30:55.373Z,63.90
2023-05-14T21:33:23.761Z,63.90
2023-05-14T21:35:52.022Z,63.90
2023-05-14T21:38:22.099Z,63.90
2023-05-14T21:40:50.268Z,63.90
2023-05-14T21:43:18.672Z,63.90
2023-05-14T21:45:47.345Z,63.90
2023-05-14T21:48:15.656Z,63.90
2023-05-14T21:50:43.930Z,63.90
2023-05-14T21:53:12.090Z,63.90
2023-05-14T21:55:41.726Z,63.90
2023-05-14T21:58:10.053Z,63.90
2023-05-14T22:00:38.255Z,63.90
2023-05-14T22:03:06.524Z,63.90
2023-05-14T22:05:34.714Z,63.90
2023-05-14T22:08:02.904Z,63.90
2023-05-14T22:10:32.277Z,63.90
2023-05-14T22:13:01.832Z,63.90
2023-05-14T22:15:29.935Z,63.90
2023-05-14T22:17:58.211Z,63.90
2023-05-14T22:20:26.478Z,63.90
2023-05-14T22:22:54.656Z,63.90
2023-05-14T22:25:23.093Z,63.90
2023-05-14T22:27:51.425Z,63.90
2023-05-14T22:30:21.164Z,63.90
2023-05-14T22:32:49.351Z,63.90
2023-05-14T22:35:18.028Z,63.90
2023-05-14T22:37:46.208Z,63.90
2023-05-14T22:40:14.847Z,63.90
2023-05-14T22:42:43.077Z,63.80
2023-05-14T22:45:11.829Z,63.80
2023-05-14T22:47:41.439Z,63.80
2023-05-14T22:50:11.613Z,63.80
2023-05-14T22:52:40.199Z,63.80
2023-05-14T22:55:09.267Z,63.80
2023-05-14T22:57:37.401Z,63.80
2023-05-14T23:00:07.211Z,63.80
2023-05-14T23:02:35.811Z,63.80
2023-05-14T23:05:06.133Z,63.80
2023-05-14T23:07:34.350Z,63.80
2023-05-14T23:10:02.593Z,63.80
2023-05-14T23:12:30.764Z,63.80
2023-05-14T23:14:59.196Z,63.80
2023-05-14T23:17:27.673Z,63.80
2023-05-14T23:19:56.045Z,63.80
2023-05-14T23:22:25.698Z,63.80
2023-05-14T23:24:53.903Z,63.80
2023-05-14T23:27:22.164Z,63.80
2023-05-14T23:29:50.761Z,63.80
2023-05-14T23:32:18.910Z,63.80
2023-05-14T23:34:47.067Z,63.80
2023-05-14T23:37:15.423Z,63.80
2023-05-14T23:39:45.024Z,63.80
2023-05-14T23:42:13.142Z,63.80
2023-05-14T23:44:41.254Z,63.80
2023-05-14T23:47:10.013Z,63.80
2023-05-14T23:49:39.429Z,63.80
2023-05-14T23:52:07.975Z,63.80
2023-05-14T23:54:36.129Z,63.80
2023-05-14T23:57:06.025Z,63.80
2023-05-14T23:59:34.176Z,63.80
